createdAt,value
2023-05-08T00:12:25.737Z,0
2023-05-08T00:27:25.851Z,0
2023-05-08T00:42:26.070Z,0
2023-05-08T00:57:25.388Z,0
2023-05-08T01:12:25.559Z,0
2023-05-08T01:27:25.661Z,0
2023-05-08T01:42:25.845Z,0
2023-05-08T01:57:25.992Z,0
2023-05-08T02:12:25.176Z,0
2023-05-08T02:27:25.302Z,0
2023-05-08T02:42:25.511Z,0
2023-05-08T02:57:25.677Z,0
2023-05-08T03:12:25.941Z,1.62
2023-05-08T03:27:25.531Z,3.92
2023-05-08T03:42:25.626Z,0.04
2023-05-08T03:57:25.798Z,0.06
2023-05-08T04:12:25.232Z,1
2023-05-08T04:27:25.446Z,0.15
2023-05-08T04:42:25.865Z,2.04
2023-05-08T04:57:25.355Z,0.09
2023-05-08T05:12:25.606Z,0.21
2023-05-08T05:27:25.961Z,1.78
2023-05-08T05:42:25.284Z,1.77
2023-05-08T05:57:25.456Z,0.63
2023-05-08T06:12:25.673Z,3.18
2023-05-08T06:27:25.767Z,1.65
2023-05-08T06:42:25.784Z,0.35
2023-05-08T06:57:25.656Z,1.35
2023-05-08T07:12:25.608Z,0.35
2023-05-08T07:27:25.388Z,0.12
2023-05-08T07:42:25.230Z,0.09
2023-05-08T07:57:25.867Z,1.26
2023-05-08T08:12:25.608Z,2.71
2023-05-08T08:27:25.226Z,0.15
2023-05-08T08:42:25.583Z,0
2023-05-08T08:57:25.825Z,0.3
2023-05-08T09:12:25.167Z,0.03
2023-05-08T09:27:25.427Z,0.08
2023-05-08T09:42:25.813Z,0.28
2023-05-08T09:57:25.439Z,0.25
2023-05-08T10:12:25.759Z,0.53
2023-05-08T10:27:25.833Z,0.08
2023-05-08T10:42:25.855Z,0.26
2023-05-08T10:57:25.985Z,0.32
2023-05-08T11:12:25.240Z,1.5
2023-05-08T11:27:25.648Z,0.67
2023-05-08T11:42:25.998Z,0.83
2023-05-08T11:57:25.380Z,0.03
2023-05-08T12:12:25.784Z,2.44
2023-05-08T12:27:25.269Z,0.52
2023-05-08T12:42:25.688Z,1.27
2023-05-08T12:57:25.789Z,15.26
2023-05-08T13:27:25.862Z,0.38
2023-05-08T13:42:26.050Z,0.39
2023-05-08T13:57:25.846Z,0.4
2023-05-08T14:12:25.997Z,0.79
2023-05-08T14:27:25.362Z,1.61
2023-05-08T14:42:26.074Z,6.48
2023-05-08T14:57:25.558Z,6.99
2023-05-08T15:12:25.198Z,10.91
2023-05-08T15:27:25.227Z,5.71
2023-05-08T15:42:25.705Z,3.14
2023-05-08T15:57:25.243Z,4.34
2023-05-08T16:12:25.725Z,4.76
2023-05-08T16:27:25.304Z,2.22
2023-05-08T16:42:25.886Z,2.21
2023-05-08T16:57:25.810Z,4.11
2023-05-08T17:12:25.665Z,6.25
2023-05-08T17:27:25.623Z,6.48
2023-05-08T17:42:26.022Z,13.86
2023-05-08T17:57:25.929Z,12.24
2023-05-08T18:12:25.784Z,14.6
2023-05-08T18:27:25.618Z,13.42
2023-05-08T18:42:25.583Z,11.53
2023-05-08T18:57:25.639Z,9.54
2023-05-08T19:12:25.348Z,10.87
2023-05-08T19:27:25.868Z,10.46
2023-05-08T19:42:25.976Z,10.69
2023-05-08T19:57:25.589Z,7.88
2023-05-08T20:12:26.021Z,6.61
2023-05-08T20:27:25.221Z,6.6
2023-05-08T20:42:26.040Z,7
2023-05-08T20:57:26.058Z,5.6
2023-05-08T21:12:26.281Z,1.87
2023-05-08T21:27:25.950Z,5.64
2023-05-08T21:42:25.866Z,5.32
2023-05-08T21:57:25.806Z,8.92
2023-05-08T22:12:25.265Z,7.76
2023-05-08T22:27:25.494Z,8.73
2023-05-08T22:42:25.289Z,9.42
2023-05-08T22:57:25.386Z,5.15
2023-05-08T23:12:25.835Z,6.31
2023-05-08T23:27:25.958Z,3.08
2023-05-08T23:42:26.219Z,1.8
2023-05-08T23:57:25.834Z,2.34
